createdAt,value
2017-04-25T00:00:27.269Z,61
2017-04-25T00:01:07.872Z,61
2017-04-25T00:01:48.461Z,60.81
2017-04-25T00:02:29.101Z,61.1
2017-04-25T00:03:09.713Z,61
2017-04-25T00:03:50.326Z,60.91
2017-04-25T00:04:30.918Z,61.51
2017-04-25T00:05:11.523Z,61.19
2017-04-25T00:05:52.209Z,61.48
2017-04-25T00:06:32.798Z,61
2017-04-25T00:07:13.421Z,61.38
2017-04-25T00:07:54.028Z,61.51
2017-04-25T00:08:34.630Z,61.48
2017-04-25T00:09:15.254Z,61.57
2017-04-25T00:09:55.897Z,61.48
2017-04-25T00:10:36.492Z,61.38
2017-04-25T00:11:17.091Z,61.19
2017-04-25T00:11:57.702Z,61.48
2017-04-25T00:12:38.314Z,61.57
2017-04-25T00:13:18.939Z,61.29
2017-04-25T00:13:59.550Z,61.29
2017-04-25T00:14:40.182Z,61.57
2017-04-25T00:15:20.831Z,61.48
2017-04-25T00:16:01.428Z,61.38
2017-04-25T00:16:42.039Z,61.67
2017-04-25T00:17:22.654Z,61.76
2017-04-25T00:18:03.257Z,61.57
2017-04-25T00:18:43.854Z,61.48
2017-04-25T00:19:24.496Z,61.57
2017-04-25T00:20:05.119Z,61.38
2017-04-25T00:20:45.730Z,61.57
2017-04-25T00:21:26.354Z,61.48
2017-04-25T00:22:06.966Z,61.38
2017-04-25T00:22:47.574Z,61.48
2017-04-25T00:23:28.187Z,61.67
2017-04-25T00:24:08.785Z,61.67
2017-04-25T00:24:49.384Z,61.86
2017-04-25T00:25:29.994Z,61.96
2017-04-25T00:26:10.589Z,62.05
2017-04-25T00:26:51.203Z,61.76
2017-04-25T00:27:31.830Z,61.86
2017-04-25T00:28:12.443Z,62.15
2017-04-25T00:28:53.043Z,61.96
2017-04-25T00:29:33.646Z,61.76
2017-04-25T00:30:14.260Z,61.96
2017-04-25T00:30:54.872Z,61.86
2017-04-25T00:31:35.493Z,61.76
2017-04-25T00:32:16.079Z,61.96
2017-04-25T00:32:56.696Z,61.76
2017-04-25T00:33:37.302Z,61.76
2017-04-25T00:34:17.907Z,61.76
2017-04-25T00:34:58.508Z,61.86
2017-04-25T00:35:39.112Z,61.86
2017-04-25T00:36:19.717Z,61.57
2017-04-25T00:37:00.311Z,61.76
2017-04-25T00:37:40.930Z,61.57
2017-04-25T00:38:21.541Z,61.48
2017-04-25T00:39:02.234Z,61.48
2017-04-25T00:39:42.848Z,61.67
2017-04-25T00:40:23.440Z,61.67
2017-04-25T00:41:04.054Z,61.38
2017-04-25T00:41:44.659Z,61.48
2017-04-25T00:42:25.279Z,61.86
2017-04-25T00:43:05.909Z,61.76
2017-04-25T00:43:46.538Z,61.57
2017-04-25T00:44:27.151Z,61.38
2017-04-25T00:45:07.766Z,61.57
2017-04-25T00:45:48.393Z,61.48
2017-04-25T00:46:29.039Z,61.57
2017-04-25T00:47:09.622Z,61.67
2017-04-25T00:47:50.236Z,61.86
2017-04-25T00:48:30.854Z,61.38
2017-04-25T00:49:11.480Z,61.29
2017-04-25T00:49:52.096Z,61.38
2017-04-25T00:50:32.697Z,61.57
2017-04-25T00:51:13.292Z,61.57
2017-04-25T00:51:53.963Z,61.48
2017-04-25T00:52:34.598Z,61.29
2017-04-25T00:53:17.750Z,61.76
2017-04-25T00:53:58.355Z,61.38
2017-04-25T00:54:38.957Z,61.67
2017-04-25T00:55:19.569Z,61.96
2017-04-25T00:56:00.219Z,61.86
2017-04-25T00:56:40.814Z,62.15
2017-04-25T00:57:21.445Z,61.96
2017-04-25T00:58:02.067Z,62.24
2017-04-25T00:58:42.667Z,62.05
2017-04-25T00:59:23.310Z,62.15
2017-04-25T01:00:03.942Z,62.05
2017-04-25T01:00:44.534Z,62.34
2017-04-25T01:01:25.134Z,62.05
2017-04-25T01:02:05.746Z,62.15
2017-04-25T01:02:46.377Z,62.05
2017-04-25T01:03:26.990Z,61.96
2017-04-25T01:04:07.620Z,62.05
2017-04-25T01:04:48.257Z,62.05
2017-04-25T01:05:28.870Z,62.15
2017-04-25T01:06:09.498Z,62.05
2017-04-25T01:06:50.167Z,62.52
2017-04-25T01:07:30.800Z,62.24
2017-04-25T01:08:11.437Z,62.43
2017-04-25T01:08:52.069Z,62.34
2017-04-25T01:09:32.700Z,62.43
2017-04-25T01:10:13.371Z,62.15
2017-04-25T01:10:54.017Z,62.72
2017-04-25T01:11:34.624Z,62.34
2017-04-25T01:12:15.212Z,61.96
2017-04-25T01:12:55.833Z,62.05
2017-04-25T01:13:36.436Z,61.86
2017-04-25T01:14:17.048Z,62.34
2017-04-25T01:14:57.672Z,62.43
2017-04-25T01:15:38.286Z,62.05
2017-04-25T01:16:18.923Z,62.43
2017-04-25T01:16:59.552Z,62.34
2017-04-25T01:17:40.192Z,62.34
2017-04-25T01:18:20.849Z,62.24
2017-04-25T01:19:01.450Z,62.15
2017-04-25T01:19:42.058Z,62.24
2017-04-25T01:20:22.740Z,62.24
2017-04-25T01:21:03.355Z,62.24
2017-04-25T01:21:43.965Z,62.34
2017-04-25T01:22:24.558Z,62.15
2017-04-25T01:23:05.186Z,62.43
2017-04-25T01:23:45.799Z,62.72
2017-04-25T01:24:26.417Z,62.34
2017-04-25T01:25:07.027Z,62.24
2017-04-25T01:25:47.649Z,62.24
2017-04-25T01:26:28.273Z,62.34
2017-04-25T01:27:08.889Z,62.34
2017-04-25T01:27:49.521Z,62.43
2017-04-25T01:28:30.130Z,62.24
2017-04-25T01:29:10.757Z,62.43
2017-04-25T01:29:51.366Z,62.62
2017-04-25T01:30:31.989Z,62.34
2017-04-25T01:31:12.635Z,62.43
2017-04-25T01:31:53.224Z,62.34
2017-04-25T01:32:33.834Z,62.34
2017-04-25T01:33:14.440Z,62.15
2017-04-25T01:33:55.056Z,62.15
2017-04-25T01:34:35.698Z,62.81
2017-04-25T01:35:16.354Z,62.62
2017-04-25T01:35:56.930Z,62.43
2017-04-25T01:36:37.554Z,62.34
2017-04-25T01:37:18.171Z,62.05
2017-04-25T01:37:58.788Z,61.96
2017-04-25T01:38:39.404Z,62.05
2017-04-25T01:39:20.000Z,62.05
2017-04-25T01:40:00.605Z,62.15
2017-04-25T01:40:41.296Z,61.76
2017-04-25T01:41:21.924Z,61.86
2017-04-25T01:42:02.538Z,61.67
2017-04-25T01:42:43.156Z,61.48
2017-04-25T01:43:23.763Z,61.38
2017-04-25T01:44:04.364Z,61.48
2017-04-25T01:44:44.972Z,61
2017-04-25T01:45:25.608Z,61.1
2017-04-25T01:46:06.217Z,60.72
2017-04-25T01:46:46.839Z,60.91
2017-04-25T01:47:27.428Z,60.91
2017-04-25T01:48:08.046Z,60.62
2017-04-25T01:48:48.685Z,60.81
2017-04-25T01:49:29.290Z,60.62
2017-04-25T01:50:09.900Z,60.33
2017-04-25T01:50:50.506Z,60.33
2017-04-25T01:51:31.100Z,60.49
2017-04-25T01:52:11.703Z,60.49
2017-04-25T01:52:52.321Z,60.4
2017-04-25T01:53:32.951Z,60.69
2017-04-25T01:54:13.601Z,61.16
2017-04-25T01:54:54.199Z,60.78
2017-04-25T01:55:34.808Z,60.81
2017-04-25T01:56:15.501Z,61.16
2017-04-25T01:56:56.128Z,60.97
2017-04-25T01:57:36.731Z,60.88
2017-04-25T01:58:17.352Z,60.59
2017-04-25T01:58:58.022Z,60.78
2017-04-25T01:59:38.634Z,60.97
2017-04-25T02:00:19.245Z,60.88
2017-04-25T02:00:59.866Z,60.11
2017-04-25T02:01:40.473Z,60.4
2017-04-25T02:02:21.077Z,60.4
2017-04-25T02:03:01.727Z,60.49
2017-04-25T02:03:42.349Z,60.3
2017-04-25T02:04:23.004Z,60.3
2017-04-25T02:05:03.644Z,60.78
2017-04-25T02:05:44.231Z,60.21
2017-04-25T02:06:24.836Z,60.3
2017-04-25T02:07:05.454Z,60.4
2017-04-25T02:07:46.114Z,60.49
2017-04-25T02:08:26.733Z,60.3
2017-04-25T02:09:07.343Z,60.69
2017-04-25T02:09:48.015Z,60.59
2017-04-25T02:10:28.550Z,60.59
2017-04-25T02:11:09.176Z,60.59
2017-04-25T02:11:49.807Z,60.4
2017-04-25T02:12:30.414Z,60.4
2017-04-25T02:13:11.002Z,60.3
2017-04-25T02:13:51.616Z,60.21
2017-04-25T02:14:32.219Z,60.21
2017-04-25T02:15:12.824Z,60.59
2017-04-25T02:15:53.543Z,60.69
2017-04-25T02:16:34.165Z,60.88
2017-04-25T02:17:14.777Z,60.88
2017-04-25T02:17:55.376Z,60.97
2017-04-25T02:18:35.974Z,60.78
2017-04-25T02:19:16.573Z,61.16
2017-04-25T02:19:57.196Z,60.78
2017-04-25T02:20:37.790Z,61.16
2017-04-25T02:21:18.438Z,60.88
2017-04-25T02:21:59.047Z,60.88
2017-04-25T02:22:39.704Z,60.78
2017-04-25T02:23:20.370Z,60.97
2017-04-25T02:24:00.947Z,60.69
2017-04-25T02:24:41.554Z,60.97
2017-04-25T02:25:22.263Z,61.16
2017-04-25T02:26:02.861Z,60.97
2017-04-25T02:26:43.453Z,61.07
2017-04-25T02:27:24.120Z,61.45
2017-04-25T02:28:04.859Z,61.07
2017-04-25T02:28:45.487Z,60.88
2017-04-25T02:29:26.131Z,60.69
2017-04-25T02:30:06.775Z,60.78
2017-04-25T02:30:47.386Z,60.97
2017-04-25T02:31:28.010Z,61.07
2017-04-25T02:32:08.621Z,60.88
2017-04-25T02:32:49.247Z,60.97
2017-04-25T02:33:29.869Z,61.16
2017-04-25T02:34:10.495Z,61.64
2017-04-25T02:34:51.086Z,61.54
2017-04-25T02:35:31.691Z,61.45
2017-04-25T02:36:12.295Z,61.35
2017-04-25T02:36:52.907Z,61.25
2017-04-25T02:37:33.568Z,61.35
2017-04-25T02:38:14.159Z,61.35
2017-04-25T02:38:54.810Z,61.45
2017-04-25T02:39:35.401Z,61.35
2017-04-25T02:40:16.016Z,61.45
2017-04-25T02:40:56.619Z,61.45
2017-04-25T02:41:37.297Z,61.25
2017-04-25T02:42:17.917Z,61.35
2017-04-25T02:42:58.589Z,61.45
2017-04-25T02:43:39.205Z,61.54
2017-04-25T02:44:19.824Z,61.54
2017-04-25T02:45:00.430Z,61.54
2017-04-25T02:45:41.087Z,61.45
2017-04-25T02:46:21.717Z,61.54
2017-04-25T02:47:02.316Z,61.07
2017-04-25T02:47:42.927Z,61.25
2017-04-25T02:48:23.534Z,61.54
2017-04-25T02:49:04.160Z,61.54
2017-04-25T02:49:44.779Z,61.16
2017-04-25T02:50:25.376Z,61.64
2017-04-25T02:51:06.007Z,61.54
2017-04-25T02:51:46.644Z,61.54
2017-04-25T02:52:27.246Z,61.25
2017-04-25T02:53:07.978Z,60.97
2017-04-25T02:53:48.560Z,61.07
2017-04-25T02:54:29.186Z,61.25
2017-04-25T02:55:09.814Z,60.78
2017-04-25T02:55:50.433Z,60.88
2017-04-25T02:56:31.043Z,60.97
2017-04-25T02:57:11.658Z,60.97
2017-04-25T02:57:52.299Z,61.25
2017-04-25T02:58:32.946Z,61.07
2017-04-25T02:59:13.563Z,60.97
2017-04-25T02:59:54.192Z,60.88
2017-04-25T03:00:34.811Z,61.07
2017-04-25T03:01:15.476Z,61.45
2017-04-25T03:01:56.116Z,61.35
2017-04-25T03:02:36.729Z,61.25
2017-04-25T03:03:17.349Z,61.54
2017-04-25T03:03:57.957Z,61.35
2017-04-25T03:04:38.568Z,61.25
2017-04-25T03:05:19.212Z,61.07
2017-04-25T03:05:59.802Z,61.07
2017-04-25T03:06:40.429Z,61.07
2017-04-25T03:07:21.037Z,61.54
2017-04-25T03:08:01.630Z,60.97
2017-04-25T03:08:42.238Z,61.54
2017-04-25T03:09:22.834Z,61.07
2017-04-25T03:10:03.449Z,61.07
2017-04-25T03:10:44.059Z,60.97
2017-04-25T03:11:24.661Z,60.88
2017-04-25T03:12:05.295Z,60.88
2017-04-25T03:12:45.896Z,60.78
2017-04-25T03:13:26.501Z,60.97
2017-04-25T03:14:07.128Z,60.88
2017-04-25T03:14:47.731Z,60.78
2017-04-25T03:15:28.324Z,60.88
2017-04-25T03:16:08.942Z,60.88
2017-04-25T03:16:49.558Z,60.97
2017-04-25T03:17:30.164Z,61.25
2017-04-25T03:18:10.770Z,60.97
2017-04-25T03:18:51.384Z,60.97
2017-04-25T03:19:32.000Z,60.69
2017-04-25T03:20:12.645Z,60.69
2017-04-25T03:20:53.271Z,61.07
2017-04-25T03:21:33.899Z,60.88
2017-04-25T03:22:14.481Z,60.88
2017-04-25T03:22:55.136Z,61.16
2017-04-25T03:23:35.744Z,61.25
2017-04-25T03:24:16.364Z,61.35
2017-04-25T03:24:56.986Z,61.35
2017-04-25T03:25:37.597Z,61.35
2017-04-25T03:26:18.195Z,61.35
2017-04-25T03:26:58.826Z,61.35
2017-04-25T03:27:39.432Z,61.64
2017-04-25T03:28:20.047Z,61.35
2017-04-25T03:29:00.655Z,61.25
2017-04-25T03:29:41.275Z,61.83
2017-04-25T03:30:21.936Z,61.25
2017-04-25T03:31:02.541Z,61.64
2017-04-25T03:31:43.149Z,61.73
2017-04-25T03:32:23.776Z,61.93
2017-04-25T03:33:04.378Z,62.02
2017-04-25T03:33:44.998Z,61.64
2017-04-25T03:34:25.660Z,61.64
2017-04-25T03:35:06.271Z,61.35
2017-04-25T03:35:46.883Z,61.64
2017-04-25T03:36:27.517Z,61.64
2017-04-25T03:37:08.110Z,61.45
2017-04-25T03:37:48.704Z,61.35
2017-04-25T03:38:29.323Z,61.45
2017-04-25T03:39:09.923Z,61.54
2017-04-25T03:39:50.573Z,61.64
2017-04-25T03:40:31.194Z,60.88
2017-04-25T03:41:11.810Z,61.25
2017-04-25T03:41:52.402Z,61.07
2017-04-25T03:42:33.023Z,61.35
2017-04-25T03:43:13.635Z,61.54
2017-04-25T03:43:54.255Z,61.64
2017-04-25T03:44:34.885Z,61.54
2017-04-25T03:45:15.496Z,61.35
2017-04-25T03:45:56.110Z,61.35
2017-04-25T03:46:36.724Z,61.73
2017-04-25T03:47:17.354Z,61.45
2017-04-25T03:47:57.983Z,61.45
2017-04-25T03:48:38.593Z,61.54
2017-04-25T03:49:19.197Z,61.54
2017-04-25T03:49:59.816Z,61.45
2017-04-25T03:50:40.428Z,62.02
2017-04-25T03:51:21.069Z,61.73
2017-04-25T03:52:01.711Z,61.54
2017-04-25T03:52:42.354Z,61.45
2017-04-25T03:53:22.941Z,61.54
2017-04-25T03:54:03.550Z,61.35
2017-04-25T03:54:44.160Z,61.25
2017-04-25T03:55:24.777Z,61.64
2017-04-25T03:56:05.394Z,61.83
2017-04-25T03:56:46.057Z,61.54
2017-04-25T03:57:26.816Z,61.73
2017-04-25T03:58:07.446Z,61.54
2017-04-25T03:58:48.055Z,61.35
2017-04-25T03:59:28.670Z,61.35
2017-04-25T04:00:09.310Z,61.45
2017-04-25T04:00:49.932Z,61.25
2017-04-25T04:01:30.585Z,61.93
2017-04-25T04:02:11.210Z,62.02
2017-04-25T04:02:51.837Z,62.02
2017-04-25T04:03:32.469Z,62.02
2017-04-25T04:04:13.087Z,62.12
2017-04-25T04:04:53.734Z,62.21
2017-04-25T04:05:34.368Z,62.3
2017-04-25T04:06:14.998Z,62.02
2017-04-25T04:06:55.632Z,62.21
2017-04-25T04:07:36.240Z,62.21
2017-04-25T04:08:16.843Z,62.3
2017-04-25T04:08:57.503Z,62.12
2017-04-25T04:09:38.132Z,62.02
2017-04-25T04:10:18.771Z,61.93
2017-04-25T04:10:59.404Z,62.21
2017-04-25T04:11:40.024Z,62.02
2017-04-25T04:12:20.644Z,62.3
2017-04-25T04:13:01.280Z,62.12
2017-04-25T04:13:41.890Z,62.12
2017-04-25T04:14:22.568Z,62.3
2017-04-25T04:15:03.214Z,62.21
2017-04-25T04:15:43.866Z,61.93
2017-04-25T04:16:24.508Z,62.3
2017-04-25T04:17:05.146Z,62.02
2017-04-25T04:17:45.791Z,62.02
2017-04-25T04:18:26.454Z,62.3
2017-04-25T04:19:07.085Z,62.12
2017-04-25T04:19:47.704Z,61.93
2017-04-25T04:20:28.334Z,62.12
2017-04-25T04:21:08.933Z,62.12
2017-04-25T04:21:49.580Z,61.73
2017-04-25T04:22:30.293Z,61.93
2017-04-25T04:23:10.924Z,61.83
2017-04-25T04:23:51.555Z,62.02
2017-04-25T04:24:32.197Z,61.83
2017-04-25T04:25:12.842Z,61.93
2017-04-25T04:25:53.493Z,62.12
2017-04-25T04:26:34.113Z,61.93
2017-04-25T04:27:14.721Z,62.02
2017-04-25T04:27:55.356Z,62.02
2017-04-25T04:28:36.069Z,62.02
2017-04-25T04:29:16.674Z,62.02
2017-04-25T04:29:57.295Z,61.83
2017-04-25T04:30:37.898Z,61.83
2017-04-25T04:31:18.532Z,61.83
2017-04-25T04:31:59.151Z,61.73
2017-04-25T04:32:39.766Z,61.73
2017-04-25T04:33:20.372Z,61.83
2017-04-25T04:34:01.009Z,61.83
2017-04-25T04:34:41.641Z,61.45
2017-04-25T04:35:22.243Z,61.35
2017-04-25T04:36:02.862Z,61.45
2017-04-25T04:36:43.477Z,61.64
2017-04-25T04:37:24.082Z,61.35
2017-04-25T04:38:04.692Z,61.54
2017-04-25T04:38:45.308Z,61.45
2017-04-25T04:39:25.926Z,61.54
2017-04-25T04:40:06.533Z,61.35
2017-04-25T04:40:47.167Z,60.88
2017-04-25T04:41:27.822Z,61.25
2017-04-25T04:42:08.474Z,61.73
2017-04-25T04:42:49.087Z,61.35
2017-04-25T04:43:29.759Z,61.54
2017-04-25T04:44:10.433Z,60.88
2017-04-25T04:44:51.071Z,61.07
2017-04-25T04:45:31.715Z,60.97
2017-04-25T04:46:12.311Z,61.16
2017-04-25T04:46:52.936Z,61.45
2017-04-25T04:47:33.608Z,61.64
2017-04-25T04:48:14.160Z,61.45
2017-04-25T04:48:54.795Z,61.25
2017-04-25T04:49:35.447Z,61.54
2017-04-25T04:50:16.061Z,60.97
2017-04-25T04:50:56.733Z,60.97
2017-04-25T04:51:37.355Z,61.54
2017-04-25T04:52:17.954Z,61.35
2017-04-25T04:52:58.611Z,61.54
2017-04-25T04:53:39.245Z,61.07
2017-04-25T04:54:20.046Z,60.88
2017-04-25T04:55:00.652Z,61.16
2017-04-25T04:55:41.277Z,60.97
2017-04-25T04:56:21.955Z,60.88
2017-04-25T04:57:02.600Z,60.78
2017-04-25T04:57:43.295Z,61.07
2017-04-25T04:58:23.971Z,60.88
2017-04-25T04:59:04.642Z,61.07
2017-04-25T04:59:45.262Z,60.78
2017-04-25T05:00:25.880Z,60.21
2017-04-25T05:01:06.551Z,60.4
2017-04-25T05:01:47.213Z,60.21
2017-04-25T05:02:27.907Z,60.49
2017-04-25T05:03:08.567Z,60.4
2017-04-25T05:03:49.282Z,60.4
2017-04-25T05:04:29.962Z,60.59
2017-04-25T05:05:10.787Z,60.49
2017-04-25T05:05:51.501Z,60.4
2017-04-25T05:06:32.184Z,60.21
2017-04-25T05:07:12.835Z,60.49
2017-04-25T05:07:53.511Z,59.92
2017-04-25T05:08:34.205Z,60.21
2017-04-25T05:09:14.852Z,60.11
2017-04-25T05:09:55.487Z,60.02
2017-04-25T05:10:36.123Z,60.49
2017-04-25T05:11:16.770Z,60.4
2017-04-25T05:11:57.402Z,60.21
2017-04-25T05:12:38.051Z,60.49
2017-04-25T05:13:18.667Z,60.49
2017-04-25T05:13:59.322Z,60.4
2017-04-25T05:14:39.950Z,60.49
2017-04-25T05:15:20.566Z,60.4
2017-04-25T05:16:01.176Z,60.4
2017-04-25T05:16:41.789Z,60.21
2017-04-25T05:17:22.418Z,60.02
2017-04-25T05:18:03.051Z,59.74
2017-04-25T05:18:43.686Z,60.02
2017-04-25T05:19:24.290Z,60.11
2017-04-25T05:20:04.923Z,59.92
2017-04-25T05:20:45.542Z,60.21
2017-04-25T05:21:26.156Z,60.11
2017-04-25T05:22:06.792Z,60.11
2017-04-25T05:22:47.420Z,60.21
2017-04-25T05:23:28.039Z,60.11
2017-04-25T05:24:08.665Z,60.21
2017-04-25T05:24:49.285Z,60.21
2017-04-25T05:25:29.955Z,59.74
2017-04-25T05:26:10.594Z,59.92
2017-04-25T05:26:51.224Z,60.02
2017-04-25T05:27:31.866Z,60.21
2017-04-25T05:28:12.496Z,60.21
2017-04-25T05:28:53.145Z,60.21
2017-04-25T05:29:33.801Z,60.4
2017-04-25T05:30:14.628Z,60.3
2017-04-25T05:30:55.269Z,60.3
2017-04-25T05:31:36.031Z,60.3
2017-04-25T05:32:16.643Z,60.21
2017-04-25T05:32:57.268Z,60.11
2017-04-25T05:33:37.891Z,59.92
2017-04-25T05:34:18.532Z,59.83
2017-04-25T05:34:59.150Z,59.92
2017-04-25T05:35:39.848Z,59.92
2017-04-25T05:36:20.469Z,60.49
2017-04-25T05:37:01.110Z,60.4
2017-04-25T05:37:41.815Z,60.3
2017-04-25T05:38:22.411Z,60.21
2017-04-25T05:39:03.033Z,60.49
2017-04-25T05:39:43.699Z,60.59
2017-04-25T05:40:24.322Z,59.92
2017-04-25T05:41:04.957Z,59.83
2017-04-25T05:41:45.572Z,60.3
2017-04-25T05:42:26.186Z,60.21
2017-04-25T05:43:06.827Z,60.11
2017-04-25T05:43:47.465Z,60.21
2017-04-25T05:44:28.086Z,60.49
2017-04-25T05:45:08.697Z,59.92
2017-04-25T05:45:49.374Z,60.3
2017-04-25T05:46:29.974Z,59.83
2017-04-25T05:47:10.589Z,59.64
2017-04-25T05:47:51.249Z,59.74
2017-04-25T05:48:31.850Z,59.92
2017-04-25T05:49:12.451Z,59.64
2017-04-25T05:49:53.063Z,59.64
2017-04-25T05:50:33.664Z,59.35
2017-04-25T05:51:14.269Z,59.64
2017-04-25T05:51:54.912Z,59.74
2017-04-25T05:52:35.524Z,60.02
2017-04-25T05:53:16.156Z,60.02
2017-04-25T05:53:56.789Z,60.21
2017-04-25T05:54:37.400Z,60.11
2017-04-25T05:55:18.013Z,60.11
2017-04-25T05:55:58.621Z,60.21
2017-04-25T05:56:39.254Z,59.54
2017-04-25T05:57:19.868Z,59.54
2017-04-25T05:58:00.497Z,60.02
2017-04-25T05:58:41.110Z,60.3
2017-04-25T05:59:21.762Z,60.11
2017-04-25T06:00:02.342Z,59.92
2017-04-25T06:00:42.966Z,60.11
2017-04-25T06:01:23.574Z,59.74
2017-04-25T06:02:04.170Z,60.02
2017-04-25T06:02:44.812Z,59.45
2017-04-25T06:03:25.414Z,59.06
2017-04-25T06:04:06.024Z,59.16
2017-04-25T06:04:46.641Z,59.35
2017-04-25T06:05:27.271Z,58.91
2017-04-25T06:06:07.875Z,58.43
2017-04-25T06:06:48.478Z,59.19
2017-04-25T06:07:29.134Z,62.05
2017-04-25T06:08:09.803Z,63.48
2017-04-25T06:08:50.479Z,63.96
2017-04-25T06:09:31.070Z,64.43
2017-04-25T06:10:11.697Z,63.99
2017-04-25T06:10:52.331Z,63.42
2017-04-25T06:11:32.963Z,63.42
2017-04-25T06:12:13.607Z,61.89
2017-04-25T06:12:54.335Z,61.16
2017-04-25T06:13:34.951Z,61.63
2017-04-25T06:14:15.570Z,60.11
2017-04-25T06:14:56.165Z,58.68
2017-04-25T06:15:36.769Z,58.58
2017-04-25T06:16:17.382Z,59.34
2017-04-25T06:16:57.992Z,57.94
2017-04-25T06:17:38.562Z,58.23
2017-04-25T06:18:19.181Z,58.7
2017-04-25T06:19:00.172Z,57.94
2017-04-25T06:19:40.757Z,57.65
2017-04-25T06:20:21.384Z,57.09
2017-04-25T06:21:02.902Z,56.6
2017-04-25T06:21:43.376Z,56.73
2017-04-25T06:22:23.967Z,56.73
2017-04-25T06:23:04.576Z,56.63
2017-04-25T06:23:45.190Z,56.06
2017-04-25T06:24:25.772Z,55.01
2017-04-25T06:25:06.352Z,55.58
2017-04-25T06:25:47.093Z,55.11
2017-04-25T06:26:27.703Z,54.34
2017-04-25T06:27:08.314Z,54.06
2017-04-25T06:27:48.950Z,53.77
2017-04-25T06:28:29.525Z,53
2017-04-25T06:29:10.144Z,52.53
2017-04-25T06:29:50.869Z,53
2017-04-25T06:30:31.473Z,52.81
2017-04-25T06:31:12.041Z,51.95
2017-04-25T06:31:52.619Z,51.76
2017-04-25T06:32:33.206Z,52.62
2017-04-25T06:33:13.779Z,53
2017-04-25T06:33:54.407Z,52.65
2017-04-25T06:34:35.363Z,52.15
2017-04-25T06:35:15.939Z,51.41
2017-04-25T06:35:56.517Z,51
2017-04-25T06:36:37.106Z,51.09
2017-04-25T06:37:17.670Z,51.86
2017-04-25T06:37:58.244Z,52.53
2017-04-25T06:38:38.852Z,53.1
2017-04-25T06:39:19.432Z,52.53
2017-04-25T06:40:00.015Z,52.15
2017-04-25T06:40:40.604Z,52.17
2017-04-25T06:41:21.198Z,52.17
2017-04-25T06:42:01.815Z,52.05
2017-04-25T06:42:42.414Z,52.36
2017-04-25T06:43:23.002Z,52.17
2017-04-25T06:44:03.614Z,52.08
2017-04-25T06:44:44.193Z,52.08
2017-04-25T06:45:24.774Z,52.46
2017-04-25T06:46:05.392Z,51.12
2017-04-25T06:46:45.983Z,51.5
2017-04-25T06:47:26.597Z,51.98
2017-04-25T06:48:07.239Z,51.7
2017-04-25T06:48:47.809Z,52.17
2017-04-25T06:49:28.391Z,51.6
2017-04-25T06:50:08.982Z,51.03
2017-04-25T06:50:49.596Z,50.93
2017-04-25T06:51:30.247Z,51.05
2017-04-25T06:52:10.862Z,50.48
2017-04-25T06:52:51.485Z,50.19
2017-04-25T06:53:32.543Z,50.29
2017-04-25T06:54:13.113Z,50.19
2017-04-25T06:54:53.738Z,50
2017-04-25T06:55:34.321Z,50.07
2017-04-25T06:56:15.244Z,50.35
2017-04-25T06:56:55.816Z,51.03
2017-04-25T06:57:36.479Z,51.79
2017-04-25T06:58:17.087Z,51.98
2017-04-25T06:58:57.672Z,52.65
2017-04-25T06:59:38.335Z,52.65
2017-04-25T07:00:18.920Z,52.75
2017-04-25T07:00:59.531Z,52.84
2017-04-25T07:01:40.215Z,52.94
2017-04-25T07:02:20.802Z,52.62
2017-04-25T07:03:01.371Z,53.96
2017-04-25T07:03:41.980Z,54.34
2017-04-25T07:04:22.556Z,55.2
2017-04-25T07:05:03.336Z,56.32
2017-04-25T07:05:43.921Z,56.8
2017-04-25T07:06:25.960Z,57.28
2017-04-25T07:07:06.756Z,57.94
2017-04-25T07:07:47.490Z,58.99
2017-04-25T07:08:28.096Z,60.02
2017-04-25T07:09:08.687Z,60.68
2017-04-25T07:09:49.676Z,60.87
2017-04-25T07:10:30.265Z,60.97
2017-04-25T07:11:10.882Z,61.44
2017-04-25T07:11:52.024Z,61.63
2017-04-25T07:12:32.657Z,62.02
2017-04-25T07:13:13.242Z,61.92
2017-04-25T07:13:53.982Z,61.8
2017-04-25T07:14:34.710Z,62.18
2017-04-25T07:15:15.306Z,61.99
2017-04-25T07:15:55.898Z,62.84
2017-04-25T07:16:36.478Z,62.94
2017-04-25T07:17:17.077Z,62.91
2017-04-25T07:17:57.658Z,63.67
2017-04-25T07:18:38.234Z,63.67
2017-04-25T07:19:18.827Z,63.86
2017-04-25T07:19:59.437Z,63.96
2017-04-25T07:20:40.326Z,64.24
2017-04-25T07:21:20.919Z,64.05
2017-04-25T07:22:01.487Z,64.05
2017-04-25T07:22:42.098Z,63.76
2017-04-25T07:23:22.702Z,63.76
2017-04-25T07:24:03.264Z,63.96
2017-04-25T07:24:43.858Z,64.72
2017-04-25T07:25:24.420Z,64.72
2017-04-25T07:26:04.989Z,64.62
2017-04-25T07:26:45.577Z,64.53
2017-04-25T07:27:26.155Z,64.15
2017-04-25T07:28:06.735Z,64.15
2017-04-25T07:28:47.316Z,64.15
2017-04-25T07:29:27.896Z,64.69
2017-04-25T07:30:08.483Z,64.21
2017-04-25T07:30:49.100Z,64.5
2017-04-25T07:31:29.732Z,64.97
2017-04-25T07:32:10.324Z,65.45
2017-04-25T07:32:50.899Z,65.36
2017-04-25T07:33:31.471Z,65.55
2017-04-25T07:34:12.086Z,65.55
2017-04-25T07:34:52.700Z,65.55
2017-04-25T07:35:33.297Z,65.45
2017-04-25T07:36:13.876Z,65.73
2017-04-25T07:36:54.502Z,65.73
2017-04-25T07:37:35.066Z,65.64
2017-04-25T07:38:15.670Z,65.83
2017-04-25T07:38:56.288Z,66.11
2017-04-25T07:39:36.908Z,66.4
2017-04-25T07:40:17.497Z,66.31
2017-04-25T07:40:58.084Z,66.31
2017-04-25T07:41:38.696Z,66.4
2017-04-25T07:42:19.290Z,66.59
2017-04-25T07:42:59.875Z,67.07
2017-04-25T07:43:40.471Z,66.21
2017-04-25T07:44:21.063Z,66.31
2017-04-25T07:45:01.653Z,66.31
2017-04-25T07:45:42.250Z,66.31
2017-04-25T07:46:22.904Z,66.31
2017-04-25T07:47:03.490Z,66.4
2017-04-25T07:47:44.064Z,66.59
2017-04-25T07:48:24.665Z,66.11
2017-04-25T07:49:05.259Z,66.02
2017-04-25T07:49:45.947Z,65.92
2017-04-25T07:50:26.521Z,65.73
2017-04-25T07:51:07.163Z,66.02
2017-04-25T07:51:47.768Z,66.02
2017-04-25T07:52:28.357Z,66.02
2017-04-25T07:53:08.963Z,65.73
2017-04-25T07:53:49.542Z,65.64
2017-04-25T07:54:30.294Z,65.73
2017-04-25T07:55:10.881Z,65.55
2017-04-25T07:55:51.459Z,66.11
2017-04-25T07:56:32.035Z,65.83
2017-04-25T07:57:12.690Z,66.31
2017-04-25T07:57:53.259Z,66.5
2017-04-25T07:58:33.850Z,66.88
2017-04-25T07:59:14.472Z,67.07
2017-04-25T07:59:55.030Z,66.97
2017-04-25T08:00:35.606Z,66.97
2017-04-25T08:01:16.190Z,67.16
2017-04-25T08:01:56.800Z,67.35
2017-04-25T08:02:37.426Z,67.45
2017-04-25T08:03:18.027Z,67.35
2017-04-25T08:03:58.603Z,67.26
2017-04-25T08:04:39.159Z,67.26
2017-04-25T08:05:19.764Z,67.26
2017-04-25T08:06:00.342Z,67.16
2017-04-25T08:06:40.913Z,67.16
2017-04-25T08:07:21.520Z,67.45
2017-04-25T08:08:02.105Z,67.74
2017-04-25T08:08:42.692Z,68.21
2017-04-25T08:09:23.270Z,68.21
2017-04-25T08:10:03.858Z,68.5
2017-04-25T08:10:44.441Z,68.12
2017-04-25T08:11:25.074Z,68.12
2017-04-25T08:12:05.673Z,67.93
2017-04-25T08:12:46.275Z,67.74
2017-04-25T08:13:26.847Z,67.93
2017-04-25T08:14:07.446Z,68.4
2017-04-25T08:14:48.025Z,68.21
2017-04-25T08:15:28.614Z,68.5
2017-04-25T08:16:09.188Z,68.69
2017-04-25T08:16:49.776Z,68.78
2017-04-25T08:17:30.357Z,68.59
2017-04-25T08:18:10.953Z,68.98
2017-04-25T08:18:51.558Z,68.88
2017-04-25T08:19:32.134Z,68.78
2017-04-25T08:20:12.727Z,68.69
2017-04-25T08:20:53.321Z,68.88
2017-04-25T08:21:33.903Z,68.65
2017-04-25T08:22:14.510Z,68.98
2017-04-25T08:22:55.085Z,68.84
2017-04-25T08:23:35.684Z,68.69
2017-04-25T08:24:16.278Z,68.78
2017-04-25T08:24:56.876Z,69.35
2017-04-25T08:25:37.441Z,69.35
2017-04-25T08:26:18.051Z,69.35
2017-04-25T08:26:58.640Z,69.74
2017-04-25T08:27:39.234Z,69.64
2017-04-25T08:28:19.797Z,69.64
2017-04-25T08:29:00.394Z,69.26
2017-04-25T08:29:41.017Z,69.45
2017-04-25T08:30:21.600Z,68.98
2017-04-25T08:31:02.336Z,68.88
2017-04-25T08:31:42.972Z,68.69
2017-04-25T08:32:23.561Z,68.69
2017-04-25T08:33:04.208Z,68.88
2017-04-25T08:33:44.813Z,69.04
2017-04-25T08:34:25.412Z,69.64
2017-04-25T08:35:06.030Z,69.13
2017-04-25T08:35:46.697Z,68.69
2017-04-25T08:36:27.280Z,68.65
2017-04-25T08:37:07.876Z,68.02
2017-04-25T08:37:48.472Z,68.18
2017-04-25T08:38:29.057Z,68.08
2017-04-25T08:39:09.768Z,67.8
2017-04-25T08:39:50.359Z,67.89
2017-04-25T08:40:30.954Z,68.18
2017-04-25T08:41:11.535Z,68.94
2017-04-25T08:41:52.159Z,68.84
2017-04-25T08:42:32.801Z,68.75
2017-04-25T08:43:13.392Z,68.46
2017-04-25T08:43:54.018Z,68.08
2017-04-25T08:44:34.623Z,67.61
2017-04-25T08:45:15.222Z,67.8